Accueil
METAR-TAF:

METAR-TAF

Aéroports :

Earlton, Ontario, Canada

latitude: 47-42N, longitude: 079-51W, altitude: 243 m

Observation

Le bulletin a été fait il y a 24 minutes, à 02:00 UTC
Vent 2 kt de sud
Température -9°C
Humidité 79%
Pression 1037 hPa
Visibilité: 14.5 km
Quelques nuages à une hauteur de 19000 ft

METAR: CYXR 230200Z AUTO 18002KT 9SM FEW190 M09/M12 A3063 RMK ICG SLP398

Heure: 21:24 (02:24 UTC)

Prévision

Le bulletin a été fait il y a 8 heures et 45 minutes, à 17:39 UTC
Prévision valable du 22 à 18 UTC au 23 à 01 UTC
Vent 3 kt de direction variable
Visibilité: 10 km
Quelques nuages à une hauteur de 24000 ft
Evoluant progressivement
du 22 à 20 UTC au 22 à 22 UTC
Vent 7 kt de sud
Quelques nuages à une hauteur de 3000 ft
Nuages épars à une hauteur de 14000 ft

TAF: CYXR 221739Z 2218/2301 VRB03KT P6SM FEW240 BECMG 2220/2222 17007KT FEW030 SCT140 RMK FCST BASED ON AUTO OBS. NXT FCST WILL BE ISSUED AT 231245Z

Observations et prévisions météorologiques de plus de 4000 aéroports (messages METAR et TAF).

Les stations disponibles sont représentées par des disques jaunes et rouges sur la carte.

Passer la souris dessus pour voir le nom de la station.

Cliquer dessus pour voir les observations et prévisions météorologiques.

Pour changer de carte: cliquez sur les boutons verts avec une croix noire pour zoomer, sur le bouton vert avec un tiret pour effectuer un zoom arrière, ou sur les flèches vertes pour les cartes adjacentes.


METAR-TAF: